Nashua, MT

2:15 AM MDT on April 27, 2015 (GMT -0600)
APRSWXNET | | Change Station
CLOSE
Current Station
Personal Weather Station
Location: Glasgow, MT
Elevation: 2211 ft
Nearby Weather Stations

Elev 2211 ft 48.19 °N, 106.61 °W | Updated 20 minutes ago

Overcast
Overcast
40 °F
Feels Like 36 °F
N
5
Wind Variable Wind from WSW
Gusts 7.0 mph

Today
High -- | Low -- °F
--% Chance of Precip.
Yesterday
High -- | Low -- °F
Precip. -- in
5:54 AM 8:13 PM
Waxing Gibbous, 63% visible
Pressure 30.31 in
Visibility 10.0 miles
Clouds Mostly Cloudy 3500 ft
Overcast 4800 ft
Windchill 36 °F
Dew Point 36 °F
Humidity 84%
Rainfall in
Snow Depth Not available.
UV 0 out of 12
Pollen 8.80 out of 12
Air Quality Not available.
Flu Activity Local Activity
METAR KGGW 270753Z AUTO 27006KT 10SM -RA BKN035 OVC048 04/02 A3026 RMK AO2 RAE0657B32 SLP264 P0000 T00440022 TSNO

More Conditions Fewer Conditions

Pressure 30.31 in
Visibility 10.0 miles
Clouds Mostly Cloudy 3500 ft
Overcast 4800 ft
Windchill 36 °F
Dew Point 36 °F
Humidity 84%
Rainfall in
Snow Depth Not available.
UV 0 out of 12
Pollen 8.80 out of 12
Air Quality Not available.
Flu Activity Local Activity
METAR KGGW 270753Z AUTO 27006KT 10SM -RA BKN035 OVC048 04/02 A3026 RMK AO2 RAE0657B32 SLP264 P0000 T00440022 TSNO

More Conditions Fewer Conditions

10-Day Weather Forecast

Almanac

Astronomy

Apr. 27, 2015 Rise Set
Actual Time
Civil Twilight
Nautical Twilight
Astronomical Twilight
Moon
Length of Visible Light
Length of Day
Tomorrow will be .
, % of the Moon is Illuminated

Today's Extremes

State Highs State Lows

Community

WunderPhotos

Upload Photos

1,817,277 photos uploaded!

WunderBlogs® & News

Nearby

Air Quality

  Air Quality AQ Index Pollutant
Not available.

Snow Depth

Station Depth Elevation

Earthquake Activity

City Distance Mag. Time & Date
Minimum magnitude displayed is 2.5.

Coastal Water Temperatures

Place Temperature

Stations

Nearby Weather Stations

Station Location Temp. Windchill Dew Point Humidity Wind Precip. Elev Updated Type